sensor_id;sensor_type;location;lat;lon;timestamp;pressure;altitude;pressure_sealevel;temperature;humidity
19114;BME280;9689;51.052;13.772;2023-09-19T00:02:07;99585.47;;;16.92;100.00
19114;BME280;9689;51.052;13.772;2023-09-19T00:07:08;99595.44;;;16.87;99.24
19114;BME280;9689;51.052;13.772;2023-09-19T00:12:11;99593.31;;;16.78;99.84
19114;BME280;9689;51.052;13.772;2023-09-19T00:17:13;99592.53;;;16.76;100.00
19114;BME280;9689;51.052;13.772;2023-09-19T00:22:15;99594.59;;;16.71;99.72
19114;BME280;9689;51.052;13.772;2023-09-19T00:27:19;99589.72;;;16.63;100.00
19114;BME280;9689;51.052;13.772;2023-09-19T00:32:20;99583.31;;;16.69;100.00
19114;BME280;9689;51.052;13.772;2023-09-19T00:37:21;99575.44;;;16.67;99.77
19114;BME280;9689;51.052;13.772;2023-09-19T00:42:23;99574.78;;;16.63;100.00
19114;BME280;9689;51.052;13.772;2023-09-19T00:47:25;99578.34;;;16.62;100.00
19114;BME280;9689;51.052;13.772;2023-09-19T00:52:26;99571.50;;;16.60;100.00
19114;BME280;9689;51.052;13.772;2023-09-19T00:57:29;99567.00;;;16.62;100.00
19114;BME280;9689;51.052;13.772;2023-09-19T01:02:32;99570.47;;;16.62;100.00
19114;BME280;9689;51.052;13.772;2023-09-19T01:07:33;99568.88;;;16.60;100.00
19114;BME280;9689;51.052;13.772;2023-09-19T01:12:44;99576.16;;;16.55;100.00
19114;BME280;9689;51.052;13.772;2023-09-19T01:17:52;99587.63;;;16.54;100.00
19114;BME280;9689;51.052;13.772;2023-09-19T01:23:04;99592.13;;;16.52;100.00
19114;BME280;9689;51.052;13.772;2023-09-19T01:28:20;99590.47;;;16.65;99.92
19114;BME280;9689;51.052;13.772;2023-09-19T01:39:02;99593.81;;;16.53;100.00
19114;BME280;9689;51.052;13.772;2023-09-19T01:44:15;99594.41;;;16.42;100.00
19114;BME280;9689;51.052;13.772;2023-09-19T01:49:25;99587.84;;;16.49;100.00
19114;BME280;9689;51.052;13.772;2023-09-19T01:54:36;99590.47;;;16.49;100.00
19114;BME280;9689;51.052;13.772;2023-09-19T01:59:45;99591.84;;;16.40;100.00
19114;BME280;9689;51.052;13.772;2023-09-19T02:04:49;99599.69;;;16.42;100.00
19114;BME280;9689;51.052;13.772;2023-09-19T02:09:51;99600.94;;;16.35;100.00
19114;BME280;9689;51.052;13.772;2023-09-19T02:14:52;99610.00;;;16.45;100.00
19114;BME280;9689;51.052;13.772;2023-09-19T02:19:53;99606.94;;;16.37;100.00
19114;BME280;9689;51.052;13.772;2023-09-19T02:24:55;99607.03;;;16.35;100.00
19114;BME280;9689;51.052;13.772;2023-09-19T02:29:58;99619.06;;;16.39;100.00
19114;BME280;9689;51.052;13.772;2023-09-19T02:35:02;99617.38;;;16.38;100.00
19114;BME280;9689;51.052;13.772;2023-09-19T02:40:07;99617.06;;;16.45;100.00
19114;BME280;9689;51.052;13.772;2023-09-19T02:45:19;99631.38;;;16.39;100.00
19114;BME280;9689;51.052;13.772;2023-09-19T02:50:20;99632.41;;;16.36;100.00
19114;BME280;9689;51.052;13.772;2023-09-19T02:55:22;99626.03;;;16.40;99.73
19114;BME280;9689;51.052;13.772;2023-09-19T03:00:23;99634.72;;;16.43;99.36
19114;BME280;9689;51.052;13.772;2023-09-19T03:05:24;99634.94;;;16.38;99.30
19114;BME280;9689;51.052;13.772;2023-09-19T03:10:27;99638.84;;;16.31;99.74
19114;BME280;9689;51.052;13.772;2023-09-19T03:15:30;99649.88;;;16.37;100.00
19114;BME280;9689;51.052;13.772;2023-09-19T03:20:32;99656.59;;;16.43;98.94
19114;BME280;9689;51.052;13.772;2023-09-19T03:25:35;99675.75;;;16.45;95.50
19114;BME280;9689;51.052;13.772;2023-09-19T03:30:36;99660.47;;;16.67;92.35
19114;BME280;9689;51.052;13.772;2023-09-19T03:35:40;99660.94;;;16.76;91.76
19114;BME280;9689;51.052;13.772;2023-09-19T03:40:43;99661.44;;;16.98;85.98
19114;BME280;9689;51.052;13.772;2023-09-19T03:45:44;99657.97;;;16.82;89.26
19114;BME280;9689;51.052;13.772;2023-09-19T03:50:46;99658.41;;;16.90;89.13
19114;BME280;9689;51.052;13.772;2023-09-19T03:55:48;99662.91;;;16.88;87.01
19114;BME280;9689;51.052;13.772;2023-09-19T04:00:53;99657.44;;;17.07;86.13
19114;BME280;9689;51.052;13.772;2023-09-19T04:05:55;99666.38;;;17.04;85.80
19114;BME280;9689;51.052;13.772;2023-09-19T04:10:58;99674.53;;;17.00;87.74
19114;BME280;9689;51.052;13.772;2023-09-19T04:15:59;99671.56;;;17.06;85.36
19114;BME280;9689;51.052;13.772;2023-09-19T04:20:59;99680.28;;;17.22;84.36
19114;BME280;9689;51.052;13.772;2023-09-19T04:26:03;99678.91;;;17.15;85.52
19114;BME280;9689;51.052;13.772;2023-09-19T04:31:06;99672.31;;;17.08;85.74
19114;BME280;9689;51.052;13.772;2023-09-19T04:36:09;99664.81;;;17.16;85.56
19114;BME280;9689;51.052;13.772;2023-09-19T04:41:34;99681.47;;;17.16;83.86
19114;BME280;9689;51.052;13.772;2023-09-19T04:46:36;99688.75;;;17.27;81.99
19114;BME280;9689;51.052;13.772;2023-09-19T04:51:37;99689.44;;;17.31;81.78
19114;BME280;9689;51.052;13.772;2023-09-19T04:56:39;99691.53;;;17.40;81.05
19114;BME280;9689;51.052;13.772;2023-09-19T05:01:40;99692.88;;;17.47;79.95
19114;BME280;9689;51.052;13.772;2023-09-19T05:06:41;99712.59;;;17.40;80.88
19114;BME280;9689;51.052;13.772;2023-09-19T05:11:46;99717.97;;;17.38;81.50
19114;BME280;9689;51.052;13.772;2023-09-19T05:16:47;99724.94;;;17.39;82.37
19114;BME280;9689;51.052;13.772;2023-09-19T05:21:48;99729.03;;;17.59;78.93
19114;BME280;9689;51.052;13.772;2023-09-19T05:26:50;99735.41;;;17.71;79.01
19114;BME280;9689;51.052;13.772;2023-09-19T05:31:51;99734.41;;;17.58;79.28
19114;BME280;9689;51.052;13.772;2023-09-19T05:36:54;99738.44;;;17.79;80.76
19114;BME280;9689;51.052;13.772;2023-09-19T05:41:56;99741.19;;;17.62;80.12
19114;BME280;9689;51.052;13.772;2023-09-19T05:46:57;99742.03;;;17.78;79.73
19114;BME280;9689;51.052;13.772;2023-09-19T05:51:58;99744.31;;;17.84;77.09
19114;BME280;9689;51.052;13.772;2023-09-19T05:57:02;99764.19;;;17.90;77.00
19114;BME280;9689;51.052;13.772;2023-09-19T06:02:03;99759.69;;;18.06;76.22
19114;BME280;9689;51.052;13.772;2023-09-19T06:07:05;99758.03;;;18.19;75.43
19114;BME280;9689;51.052;13.772;2023-09-19T06:12:08;99755.13;;;18.38;73.18
19114;BME280;9689;51.052;13.772;2023-09-19T06:17:09;99762.47;;;18.47;72.19
19114;BME280;9689;51.052;13.772;2023-09-19T06:22:10;99776.06;;;18.55;72.85
19114;BME280;9689;51.052;13.772;2023-09-19T06:27:13;99789.72;;;18.62;72.72
19114;BME280;9689;51.052;13.772;2023-09-19T06:32:13;99798.91;;;18.71;71.63
19114;BME280;9689;51.052;13.772;2023-09-19T06:37:14;99793.56;;;18.56;71.82
19114;BME280;9689;51.052;13.772;2023-09-19T06:42:17;99799.44;;;18.61;71.49
19114;BME280;9689;51.052;13.772;2023-09-19T06:47:21;99806.72;;;18.72;71.38
19114;BME280;9689;51.052;13.772;2023-09-19T06:52:22;99822.63;;;18.85;70.81
19114;BME280;9689;51.052;13.772;2023-09-19T06:57:26;99822.25;;;18.62;71.70
19114;BME280;9689;51.052;13.772;2023-09-19T07:02:27;99838.41;;;18.86;70.63
19114;BME280;9689;51.052;13.772;2023-09-19T07:07:28;99835.53;;;19.18;69.41
19114;BME280;9689;51.052;13.772;2023-09-19T07:12:30;99840.44;;;19.24;67.59
19114;BME280;9689;51.052;13.772;2023-09-19T07:17:32;99852.88;;;19.36;67.07
19114;BME280;9689;51.052;13.772;2023-09-19T07:22:33;99869.78;;;19.34;67.38
19114;BME280;9689;51.052;13.772;2023-09-19T07:27:35;99866.66;;;19.27;64.81
19114;BME280;9689;51.052;13.772;2023-09-19T07:32:36;99872.41;;;19.34;62.72
19114;BME280;9689;51.052;13.772;2023-09-19T07:37:37;99879.78;;;19.29;60.74
19114;BME280;9689;51.052;13.772;2023-09-19T07:42:40;99883.19;;;19.31;60.85
19114;BME280;9689;51.052;13.772;2023-09-19T07:47:43;99886.94;;;19.27;60.59
19114;BME280;9689;51.052;13.772;2023-09-19T07:52:45;99884.19;;;19.42;59.98
19114;BME280;9689;51.052;13.772;2023-09-19T07:57:47;99887.50;;;19.46;58.42
19114;BME280;9689;51.052;13.772;2023-09-19T08:02:48;99892.28;;;19.54;58.49
19114;BME280;9689;51.052;13.772;2023-09-19T08:07:59;99886.72;;;19.44;58.65
19114;BME280;9689;51.052;13.772;2023-09-19T08:13:02;99891.84;;;19.47;57.62
19114;BME280;9689;51.052;13.772;2023-09-19T08:18:05;99901.25;;;19.51;56.72
19114;BME280;9689;51.052;13.772;2023-09-19T08:23:07;99900.44;;;19.65;56.43
19114;BME280;9689;51.052;13.772;2023-09-19T08:28:09;99908.31;;;19.79;55.78
19114;BME280;9689;51.052;13.772;2023-09-19T08:33:16;99902.25;;;19.91;55.21
19114;BME280;9689;51.052;13.772;2023-09-19T08:38:18;99909.78;;;20.24;53.32
19114;BME280;9689;51.052;13.772;2023-09-19T08:43:22;99903.91;;;20.46;52.81
19114;BME280;9689;51.052;13.772;2023-09-19T08:48:26;99921.75;;;20.95;51.87
19114;BME280;9689;51.052;13.772;2023-09-19T08:53:34;99909.88;;;20.63;51.91
19114;BME280;9689;51.052;13.772;2023-09-19T08:58:45;99912.44;;;20.37;52.64
19114;BME280;9689;51.052;13.772;2023-09-19T09:03:47;99920.53;;;20.21;53.56
19114;BME280;9689;51.052;13.772;2023-09-19T09:08:50;99911.88;;;20.32;53.90
19114;BME280;9689;51.052;13.772;2023-09-19T09:13:52;99924.94;;;20.35;52.68
19114;BME280;9689;51.052;13.772;2023-09-19T09:18:53;99926.72;;;20.35;52.98
19114;BME280;9689;51.052;13.772;2023-09-19T09:23:57;99945.13;;;20.76;51.09
19114;BME280;9689;51.052;13.772;2023-09-19T09:29:00;99913.16;;;20.79;51.19
19114;BME280;9689;51.052;13.772;2023-09-19T09:34:02;99912.31;;;21.16;50.93
19114;BME280;9689;51.052;13.772;2023-09-19T09:39:03;99922.59;;;21.21;49.71
19114;BME280;9689;51.052;13.772;2023-09-19T09:44:18;99932.47;;;21.06;49.46
19114;BME280;9689;51.052;13.772;2023-09-19T09:49:22;99937.97;;;20.78;50.27
19114;BME280;9689;51.052;13.772;2023-09-19T09:54:29;99926.81;;;20.60;49.68
19114;BME280;9689;51.052;13.772;2023-09-19T09:59:49;99933.06;;;20.72;50.02
19114;BME280;9689;51.052;13.772;2023-09-19T10:04:55;99939.66;;;20.79;50.22
19114;BME280;9689;51.052;13.772;2023-09-19T10:10:08;99934.78;;;20.85;49.92
19114;BME280;9689;51.052;13.772;2023-09-19T10:15:18;99939.53;;;21.18;50.02
19114;BME280;9689;51.052;13.772;2023-09-19T10:20:21;99937.84;;;21.17;49.28
19114;BME280;9689;51.052;13.772;2023-09-19T10:25:37;99931.41;;;21.22;48.83
19114;BME280;9689;51.052;13.772;2023-09-19T10:30:41;99930.75;;;21.56;48.44
19114;BME280;9689;51.052;13.772;2023-09-19T10:35:45;99930.09;;;21.53;48.46
19114;BME280;9689;51.052;13.772;2023-09-19T10:40:49;99937.53;;;21.35;47.99
19114;BME280;9689;51.052;13.772;2023-09-19T10:45:53;99931.16;;;21.25;48.24
19114;BME280;9689;51.052;13.772;2023-09-19T10:51:00;99933.28;;;21.45;47.45
19114;BME280;9689;51.052;13.772;2023-09-19T10:56:04;99935.94;;;21.58;45.78
19114;BME280;9689;51.052;13.772;2023-09-19T11:01:11;99931.06;;;21.52;44.63
19114;BME280;9689;51.052;13.772;2023-09-19T11:06:16;99929.53;;;21.73;44.50
19114;BME280;9689;51.052;13.772;2023-09-19T11:11:39;99922.81;;;22.17;42.85
19114;BME280;9689;51.052;13.772;2023-09-19T11:22:20;99911.25;;;22.64;41.92
19114;BME280;9689;51.052;13.772;2023-09-19T11:27:21;99914.53;;;22.68;39.88
19114;BME280;9689;51.052;13.772;2023-09-19T11:38:03;99914.88;;;22.63;40.43
19114;BME280;9689;51.052;13.772;2023-09-19T11:43:31;99910.25;;;22.43;40.78
19114;BME280;9689;51.052;13.772;2023-09-19T11:48:35;99915.34;;;21.98;40.13
19114;BME280;9689;51.052;13.772;2023-09-19T11:53:39;99919.50;;;22.13;40.36
19114;BME280;9689;51.052;13.772;2023-09-19T11:58:43;99936.56;;;22.22;40.68
19114;BME280;9689;51.052;13.772;2023-09-19T12:03:46;99914.53;;;22.33;40.79
19114;BME280;9689;51.052;13.772;2023-09-19T12:08:49;99915.97;;;22.61;40.63
19114;BME280;9689;51.052;13.772;2023-09-19T12:13:50;99916.53;;;22.53;39.75
19114;BME280;9689;51.052;13.772;2023-09-19T12:18:53;99906.38;;;22.47;40.60
19114;BME280;9689;51.052;13.772;2023-09-19T12:24:07;99920.75;;;22.44;42.58
19114;BME280;9689;51.052;13.772;2023-09-19T12:29:14;99911.03;;;22.32;43.22
19114;BME280;9689;51.052;13.772;2023-09-19T12:34:20;99905.25;;;22.38;42.35
19114;BME280;9689;51.052;13.772;2023-09-19T12:39:25;99906.63;;;22.44;43.36
19114;BME280;9689;51.052;13.772;2023-09-19T12:44:26;99908.00;;;22.61;42.46
19114;BME280;9689;51.052;13.772;2023-09-19T12:49:27;99915.72;;;22.64;42.23
19114;BME280;9689;51.052;13.772;2023-09-19T12:54:38;99905.22;;;22.62;42.17
19114;BME280;9689;51.052;13.772;2023-09-19T12:59:39;99905.34;;;22.61;41.42
19114;BME280;9689;51.052;13.772;2023-09-19T13:04:52;99907.59;;;22.43;42.57
19114;BME280;9689;51.052;13.772;2023-09-19T13:10:04;99922.41;;;22.34;42.03
19114;BME280;9689;51.052;13.772;2023-09-19T13:15:07;99910.66;;;22.72;41.58
19114;BME280;9689;51.052;13.772;2023-09-19T13:20:21;99905.50;;;22.81;41.50
19114;BME280;9689;51.052;13.772;2023-09-19T13:25:28;99918.06;;;22.79;41.50
19114;BME280;9689;51.052;13.772;2023-09-19T13:30:30;99899.03;;;22.86;41.21
19114;BME280;9689;51.052;13.772;2023-09-19T13:35:31;99891.94;;;23.20;40.75
19114;BME280;9689;51.052;13.772;2023-09-19T13:40:33;99898.94;;;23.21;40.10
19114;BME280;9689;51.052;13.772;2023-09-19T13:45:34;99896.00;;;23.01;40.05
19114;BME280;9689;51.052;13.772;2023-09-19T13:50:37;99901.75;;;22.84;40.60
19114;BME280;9689;51.052;13.772;2023-09-19T13:55:43;99899.22;;;22.82;40.71
19114;BME280;9689;51.052;13.772;2023-09-19T14:00:44;99892.28;;;23.37;39.88
19114;BME280;9689;51.052;13.772;2023-09-19T14:05:45;99893.22;;;23.25;39.60
19114;BME280;9689;51.052;13.772;2023-09-19T14:10:47;99895.06;;;23.13;40.10
19114;BME280;9689;51.052;13.772;2023-09-19T14:15:48;99889.63;;;23.15;40.72
19114;BME280;9689;51.052;13.772;2023-09-19T14:20:49;99892.22;;;22.81;39.63
19114;BME280;9689;51.052;13.772;2023-09-19T14:25:54;99896.97;;;23.00;40.01
19114;BME280;9689;51.052;13.772;2023-09-19T14:30:55;99881.72;;;22.80;40.01
19114;BME280;9689;51.052;13.772;2023-09-19T14:35:55;99881.78;;;23.02;40.29
19114;BME280;9689;51.052;13.772;2023-09-19T14:41:01;99878.94;;;22.81;37.28
19114;BME280;9689;51.052;13.772;2023-09-19T14:46:02;99878.88;;;23.05;37.31
19114;BME280;9689;51.052;13.772;2023-09-19T14:51:04;99875.75;;;22.65;36.73
19114;BME280;9689;51.052;13.772;2023-09-19T14:56:10;99872.94;;;22.91;36.69
19114;BME280;9689;51.052;13.772;2023-09-19T15:01:13;99873.91;;;23.23;36.40
19114;BME280;9689;51.052;13.772;2023-09-19T15:06:15;99871.22;;;23.01;35.29
19114;BME280;9689;51.052;13.772;2023-09-19T15:11:18;99872.16;;;22.77;36.29
19114;BME280;9689;51.052;13.772;2023-09-19T15:16:20;99873.66;;;22.93;35.67
19114;BME280;9689;51.052;13.772;2023-09-19T15:21:21;99867.28;;;22.95;34.79
19114;BME280;9689;51.052;13.772;2023-09-19T15:26:25;99877.41;;;23.01;35.39
19114;BME280;9689;51.052;13.772;2023-09-19T15:31:26;99863.69;;;22.83;36.20
19114;BME280;9689;51.052;13.772;2023-09-19T15:36:27;99866.16;;;22.98;36.04
19114;BME280;9689;51.052;13.772;2023-09-19T15:41:31;99868.75;;;22.75;37.08
19114;BME280;9689;51.052;13.772;2023-09-19T15:46:33;99862.50;;;22.76;36.94
19114;BME280;9689;51.052;13.772;2023-09-19T15:51:35;99863.44;;;22.64;35.80
19114;BME280;9689;51.052;13.772;2023-09-19T15:56:37;99870.56;;;22.64;36.78
19114;BME280;9689;51.052;13.772;2023-09-19T16:01:42;99872.03;;;22.33;36.80
19114;BME280;9689;51.052;13.772;2023-09-19T16:06:44;99866.59;;;22.23;37.57
19114;BME280;9689;51.052;13.772;2023-09-19T16:11:46;99869.59;;;22.18;37.83
19114;BME280;9689;51.052;13.772;2023-09-19T16:16:48;99869.44;;;22.09;37.47
19114;BME280;9689;51.052;13.772;2023-09-19T16:21:50;99870.81;;;22.01;36.99
19114;BME280;9689;51.052;13.772;2023-09-19T16:26:52;99882.44;;;21.88;36.01
19114;BME280;9689;51.052;13.772;2023-09-19T16:31:53;99881.78;;;21.73;37.13
19114;BME280;9689;51.052;13.772;2023-09-19T16:36:54;99883.97;;;21.55;37.68
19114;BME280;9689;51.052;13.772;2023-09-19T16:41:58;99885.69;;;21.43;36.80
19114;BME280;9689;51.052;13.772;2023-09-19T16:47:10;99886.13;;;21.25;37.77
19114;BME280;9689;51.052;13.772;2023-09-19T16:52:11;99900.44;;;21.09;37.10
19114;BME280;9689;51.052;13.772;2023-09-19T16:57:13;99918.69;;;20.88;37.71
19114;BME280;9689;51.052;13.772;2023-09-19T17:02:14;99920.69;;;20.72;36.72
19114;BME280;9689;51.052;13.772;2023-09-19T17:07:15;99917.91;;;20.61;36.85
19114;BME280;9689;51.052;13.772;2023-09-19T17:12:17;99930.72;;;20.27;37.36
19114;BME280;9689;51.052;13.772;2023-09-19T17:17:18;99931.97;;;20.22;36.85
19114;BME280;9689;51.052;13.772;2023-09-19T17:22:19;99930.88;;;20.12;36.88
19114;BME280;9689;51.052;13.772;2023-09-19T17:27:21;99942.31;;;20.12;36.78
19114;BME280;9689;51.052;13.772;2023-09-19T17:32:22;99951.22;;;19.97;36.81
19114;BME280;9689;51.052;13.772;2023-09-19T17:37:23;99952.38;;;19.93;36.79
19114;BME280;9689;51.052;13.772;2023-09-19T17:42:25;99962.59;;;19.85;36.74
19114;BME280;9689;51.052;13.772;2023-09-19T17:47:25;99958.13;;;19.72;37.75
19114;BME280;9689;51.052;13.772;2023-09-19T17:52:26;99964.53;;;19.68;37.74
19114;BME280;9689;51.052;13.772;2023-09-19T17:57:29;99974.16;;;19.55;38.66
19114;BME280;9689;51.052;13.772;2023-09-19T18:02:30;99968.38;;;19.34;38.89
19114;BME280;9689;51.052;13.772;2023-09-19T18:07:33;99982.13;;;19.11;40.35
19114;BME280;9689;51.052;13.772;2023-09-19T18:12:35;99991.25;;;18.77;41.57
19114;BME280;9689;51.052;13.772;2023-09-19T18:17:36;99997.63;;;18.57;41.56
19114;BME280;9689;51.052;13.772;2023-09-19T18:22:37;100003.44;;;18.48;42.80
19114;BME280;9689;51.052;13.772;2023-09-19T18:27:40;100019.69;;;18.56;42.89
19114;BME280;9689;51.052;13.772;2023-09-19T18:32:41;100028.78;;;18.50;42.47
19114;BME280;9689;51.052;13.772;2023-09-19T18:37:41;100018.00;;;18.23;44.21
19114;BME280;9689;51.052;13.772;2023-09-19T18:42:44;100029.88;;;18.16;45.08
19114;BME280;9689;51.052;13.772;2023-09-19T18:47:44;100038.44;;;18.04;46.72
19114;BME280;9689;51.052;13.772;2023-09-19T18:52:46;100047.63;;;17.97;46.43
19114;BME280;9689;51.052;13.772;2023-09-19T18:57:49;100048.41;;;17.66;47.25
19114;BME280;9689;51.052;13.772;2023-09-19T19:02:51;100044.59;;;17.38;48.92
19114;BME280;9689;51.052;13.772;2023-09-19T19:07:53;100047.38;;;17.35;49.17
19114;BME280;9689;51.052;13.772;2023-09-19T19:12:59;100060.78;;;17.31;49.61
19114;BME280;9689;51.052;13.772;2023-09-19T19:18:00;100056.59;;;17.27;50.38
19114;BME280;9689;51.052;13.772;2023-09-19T19:23:02;100053.84;;;17.12;50.71
19114;BME280;9689;51.052;13.772;2023-09-19T19:28:05;100071.09;;;17.01;51.49
19114;BME280;9689;51.052;13.772;2023-09-19T19:33:06;100059.88;;;16.97;51.63
19114;BME280;9689;51.052;13.772;2023-09-19T19:38:07;100064.41;;;16.93;52.68
19114;BME280;9689;51.052;13.772;2023-09-19T19:43:09;100079.22;;;16.79;53.52
19114;BME280;9689;51.052;13.772;2023-09-19T19:48:11;100074.88;;;16.78;54.22
19114;BME280;9689;51.052;13.772;2023-09-19T19:53:12;100077.13;;;16.66;54.51
19114;BME280;9689;51.052;13.772;2023-09-19T19:58:15;100079.81;;;16.48;55.45
19114;BME280;9689;51.052;13.772;2023-09-19T20:03:16;100076.06;;;16.34;56.08
19114;BME280;9689;51.052;13.772;2023-09-19T20:08:18;100077.13;;;16.30;57.62
19114;BME280;9689;51.052;13.772;2023-09-19T20:13:21;100081.03;;;16.22;57.90
19114;BME280;9689;51.052;13.772;2023-09-19T20:18:22;100079.91;;;16.08;58.04
19114;BME280;9689;51.052;13.772;2023-09-19T20:23:22;100077.72;;;15.99;59.16
19114;BME280;9689;51.052;13.772;2023-09-19T20:28:26;100079.09;;;15.88;60.15
19114;BME280;9689;51.052;13.772;2023-09-19T20:33:27;100075.63;;;15.87;60.48
19114;BME280;9689;51.052;13.772;2023-09-19T20:38:27;100079.59;;;15.77;60.82
19114;BME280;9689;51.052;13.772;2023-09-19T20:43:31;100080.00;;;15.68;62.08
19114;BME280;9689;51.052;13.772;2023-09-19T20:48:33;100076.16;;;15.54;62.89
19114;BME280;9689;51.052;13.772;2023-09-19T20:53:36;100081.19;;;15.61;62.59
19114;BME280;9689;51.052;13.772;2023-09-19T20:58:38;100079.47;;;15.60;62.97
19114;BME280;9689;51.052;13.772;2023-09-19T21:03:40;100071.78;;;15.55;63.58
19114;BME280;9689;51.052;13.772;2023-09-19T21:08:43;100070.47;;;15.45;64.04
19114;BME280;9689;51.052;13.772;2023-09-19T21:13:47;100078.75;;;15.36;64.86
19114;BME280;9689;51.052;13.772;2023-09-19T21:18:49;100074.66;;;15.28;64.77
19114;BME280;9689;51.052;13.772;2023-09-19T21:23:50;100077.38;;;15.27;65.45
19114;BME280;9689;51.052;13.772;2023-09-19T21:28:53;100073.38;;;15.18;65.87
19114;BME280;9689;51.052;13.772;2023-09-19T21:33:55;100075.13;;;15.18;66.39
19114;BME280;9689;51.052;13.772;2023-09-19T21:38:55;100073.69;;;15.11;67.42
19114;BME280;9689;51.052;13.772;2023-09-19T21:44:00;100068.13;;;14.98;67.80
19114;BME280;9689;51.052;13.772;2023-09-19T21:49:01;100070.97;;;14.92;67.90
19114;BME280;9689;51.052;13.772;2023-09-19T21:54:04;100071.13;;;14.89;69.03
19114;BME280;9689;51.052;13.772;2023-09-19T21:59:06;100066.91;;;14.85;69.10
19114;BME280;9689;51.052;13.772;2023-09-19T22:04:07;100068.88;;;14.80;69.95
19114;BME280;9689;51.052;13.772;2023-09-19T22:09:09;100061.13;;;14.77;70.12
19114;BME280;9689;51.052;13.772;2023-09-19T22:14:11;100059.31;;;14.79;70.12
19114;BME280;9689;51.052;13.772;2023-09-19T22:19:12;100060.78;;;14.64;70.97
19114;BME280;9689;51.052;13.772;2023-09-19T22:24:15;100056.53;;;14.61;71.44
19114;BME280;9689;51.052;13.772;2023-09-19T22:29:21;100052.38;;;14.56;71.34
19114;BME280;9689;51.052;13.772;2023-09-19T22:34:23;100055.19;;;14.51;71.99
19114;BME280;9689;51.052;13.772;2023-09-19T22:39:23;100049.41;;;14.41;72.17
19114;BME280;9689;51.052;13.772;2023-09-19T22:44:26;100049.59;;;14.37;72.49
19114;BME280;9689;51.052;13.772;2023-09-19T22:49:27;100057.81;;;14.28;72.71
19114;BME280;9689;51.052;13.772;2023-09-19T22:54:31;100058.81;;;14.25;72.95
19114;BME280;9689;51.052;13.772;2023-09-19T22:59:37;100062.28;;;14.26;72.98
19114;BME280;9689;51.052;13.772;2023-09-19T23:04:40;100054.50;;;14.23;73.09
19114;BME280;9689;51.052;13.772;2023-09-19T23:09:42;100065.13;;;14.20;73.70
19114;BME280;9689;51.052;13.772;2023-09-19T23:14:44;100061.88;;;14.13;73.60
19114;BME280;9689;51.052;13.772;2023-09-19T23:19:45;100066.34;;;14.11;73.19
19114;BME280;9689;51.052;13.772;2023-09-19T23:24:48;100065.63;;;14.07;73.55
19114;BME280;9689;51.052;13.772;2023-09-19T23:30:00;100065.84;;;14.01;73.86
19114;BME280;9689;51.052;13.772;2023-09-19T23:35:00;100064.63;;;14.10;73.35
19114;BME280;9689;51.052;13.772;2023-09-19T23:40:03;100069.97;;;14.07;73.38
19114;BME280;9689;51.052;13.772;2023-09-19T23:45:11;100070.03;;;14.05;73.04
19114;BME280;9689;51.052;13.772;2023-09-19T23:50:13;100074.31;;;14.08;73.20
19114;BME280;9689;51.052;13.772;2023-09-19T23:55:16;100078.59;;;14.10;73.59
